Huvudsida
METAR-TAF:

METAR-TAF

Flygplatser :

Nyslotts flygplats

Nyslott, Finland

latitud: 61-57N, longitud: 028-57E, höjd: 95 m

Aktuellt väderrapport

Denna rapport gjordes för 20 minuter sedan, klockan 04:50 UTC
Vind 8 kt från väst, varierande mellan syd/sydväst och väst/nordväst
Temperatur 7°C
Fuktighet 81%
Tryck 1027 hPa
Sikt 10 km eller mer
Mulet på en höjd av 1500 ft

METAR: EFSA 170450Z AUTO 26008KT 210V300 9999 OVC015 07/04 Q1027

Tid: 07:10 (05:10 UTC)

Väderprognos

Denna rapport gjordes för 14 timmar och 44 minuter sedan, klockan 14:26 UTC
Prognos gäller från 16 kl. 15 UTC till 16 kl. 19 UTC
Vind 8 kt från sydväst
Sikt 10 km eller mer
Brutna moln på en höjd av 800 ft
Blir
från 16 kl. 15 UTC till 16 kl. 16 UTC
Brutna moln på en höjd av 1000 ft
Blir
från 16 kl. 16 UTC till 16 kl. 18 UTC
Spridda moln på en höjd av 1000 ft
Brutna moln på en höjd av 1500 ft

TAF: EFSA 161426Z 1615/1619 22008KT 9999 BKN008 BECMG 1615/1616 BKN010 BECMG 1616/1618 SCT010 BKN015

Aktuella väderrapporter och prognoser från 4000 flygplatser (METAR- och TAF-rapporter).

De tillgängliga stationerna syns som gula och röda prickar på kartan.

För musen över prickarna för att se namnen på stationerna.

Klicka sedan för att få väderrapporter och prognoser.

För att ändra kartan: Klicka på de gröna knapparna med ett svart kors på för att zooma in; den gröna knappen med ett streck på för att zooma ut; eller på de gröna pilarna för angränsande kartor.


METAR-TAF: